Florida AWOS List, Phone Numbers

USA |  
| Search AWOS

Rocky Mountain States: Montana | Wyoming | Colorado | New Mexico

Complete weather reports: Florida

Legend: KFNL = METAR available Follow your local AWOS on AV Mobile = METAR available on AV Mobile
Station Florida Location Frequency Phone
KAQQICAO ID KAQQ Apalachicola, Apalachicola
KAAFFAA ID AAF, ASOS, KAAF 070053Z AUTO 04012KT 10SM OVC015 09/04 A3036 Follow KAAF on AV Mobile APALACHICOLA MUNICIPAL AIRPORT 119.925 850-653-8271
KNAEICAO ID KNAE Astor, Bombing Range Detachment Astor
KAVOFAA ID AVO, AWOS-3 AVON PARK 118.725 863-453-4223
KAGRFAA ID AGR Avon Park Gunnery Range
KBOWFAA ID BOW, AWOS-3, KBOW 070115Z AUTO 02011G17KT 10SM OVC010 16/13 A3027 RMK AO2 Follow KBOW on AV Mobile Bartow Municipal 123.775 863-533-9004
F95FAA ID F95, AWOS-AV, KTEX 070640Z AUTO 15005KT 10SM CLR 02/M16 A3038 RMK AO2 T00201164 Follow  on AV Mobile BLOUNTSTOWN 119.350 850-674-1347
KBCTFAA ID BCT, AWOS-3, KBCT 062347Z 05010KT 10SM VCSH FEW015 BKN050 25/22 A3016 Follow KBCT on AV Mobile Boca Raton, Boca Raton Airport 121.125 561-391-2696
K1J0FAA ID 1J0, K1J0 070058Z AUTO 00000KT 10SM CLR 07/04 A3041 RMK AO2 SLP283 T00720039 Follow K1J0 on AV Mobile TRI COUNTY AIRPORT
KBKVFAA ID BKV, ASOS, KBKV 070053Z AUTO 01012KT 10SM OVC006 13/12 A3029 RMK AO2 SLP257 T01280117 Follow KBKV on AV Mobile BROOKSVILLE HERNANDO CO AIRPORT 134.725 352-799-5881
K1J4ICAO ID K1J4 Cape San Blas Coast Guard Station
KNZCICAO ID KNZC Cecil, Naval Air Station
2ISFAA ID 2IS, AWOS-3, KTEX 070640Z AUTO 15005KT 10SM CLR 02/M16 A3038 RMK AO2 T00201164 Follow  on AV Mobile CLEWISTON 124.175 863-983-7020
KX53ICAO ID KX53 Clewiston
KCOFFAA ID COF, KCOF 070058Z AUTO 34021G28KT 10SM OVC008 16/14 A3023 RMK AO2 PK WND 36028/51 SLP241 T01570139 $ Follow KCOF on AV Mobile Cocoa / Patrick Air Force Base
KXMRFAA ID XMR, KXMR 070058Z AUTO 36015G26KT 10SM OVC007 15/13 A3024 RMK AO2 PK WND 34031/31 SLP243 P0001 T01470129 $ Follow KXMR on AV Mobile Cocoa Beach, Cape Canaveral Air Force Station Skid Strip
KCEWFAA ID CEW, ASOS, KCEW 070053Z AUTO 34006KT 10SM CLR 08/01 A3041 Follow KCEW on AV Mobile CRESTVIEW SIKES AIRPORT 119.275 850-682-1237
KEGIFAA ID EGI, KEGI 070055Z 35006KT 10SM SCT160 BKN250 09/00 A3039 RMK AO2A SLP293 T00880004 $ Follow KEGI on AV Mobile Duke Field / Eglin Auxiliary
KCTYFAA ID CTY, KCTY 070053Z AUTO 04008G16KT 11/08 A3034 Follow KCTY on AV Mobile CROSS CITY AIRPORT
KCGCFAA ID CGC, AWOS-3, KCGC 070115Z AUTO 05007KT 10SM OVC008 11/09 A3032 RMK AO2 Follow KCGC on AV Mobile CRYSTAL RIVER 118.325 352-563-6600
KDABFAA ID DAB, ASOS, KDAB 070053Z 36012G23KT 1SM -RA BR OVC006 11/09 A3031 Follow KDAB on AV Mobile DAYTONA BEACH INTERNATIONAL 386-253-7469
54JFAA ID 54J, AWOS-3P, KTEX 070640Z AUTO 15005KT 10SM CLR 02/M16 A3038 RMK AO2 T00201164 Follow  on AV Mobile DEFUNIAK SPRINGS 118.725 850-892-0147
KDEDFAA ID DED, AWOS-3, KDED 070115Z AUTO 36012G17KT OVC004 09/09 A3034 RMK AO1 Follow KDED on AV Mobile DELAND 119.575 386-740-5811
KDTSFAA ID DTS, ASOS, KDTS 070053Z AUTO 01008KT 10SM CLR 11/02 A3039 RMK AO2 SLP290 T01110017 TSNO Follow KDTS on AV Mobile DESTIN-FT WALTON BEACH AIRPORT 133.925 850-654-7128
KX91ICAO ID KX91 Egmont Key Coast Guard Station
KFHBFAA ID FHB, AWOS-3, KFHB 070115Z AUTO 36006G14KT 10SM OVC014 10/07 A3037 RMK AO1 Follow KFHB on AV Mobile FERNANDINA BEACH 118.075 904-277-7323
KFXEFAA ID FXE, ASOS, KFXE 070053Z 02007KT 10SM SCT017 BKN075 OVC090 25/22 A3017 Follow KFXE on AV Mobile FORT LAUDERDALE EXECUTIVE 954-772-2537
KFLLFAA ID FLL, ASOS, KFLL 070111Z 07005KT 10SM BKN018 BKN070 24/22 A3016 Follow KFLL on AV Mobile FORT LAUDERDALE/HOLLYWOOD 954-359-7857
KFMYFAA ID FMY, ASOS, KFMY 070053Z 32009KT 10SM CLR 22/21 A3018 RMK AO2 SLP220 T02170206 Follow KFMY on AV Mobile FORT MYERS PAGE FIELD 239-936-2318
KRSWFAA ID RSW, ASOS, KRSW 070053Z 32007KT 10SM CLR 22/19 A3018 Follow KRSW on AV Mobile FORT MYERS SW FL INTERNATIONAL AIRPORT 239-561-0966
KX82ICAO ID KX82 Fort Pierce Coast Guard Station
KFPRFAA ID FPR, ASOS, KFPR 070053Z AUTO 36009G17KT 10SM OVC007 18/17 A3021 Follow KFPR on AV Mobile FORT PIERCE ST LUCIE 772-489-4281
KX86ICAO ID KX86 Fowey Rocks Coast Guard Station
KX89ICAO ID KX89 Ft. Myers Beach Coast Guard Station
KGNVFAA ID GNV, ASOS, KGNV 070053Z 03009KT 7SM BKN005 OVC011 08/07 A3035 Follow KGNV on AV Mobile GAINESVILLE REGIONAL AIRPORT 352-335-8672
KHWOFAA ID HWO, ASOS, KHWO 070053Z 09008KT 10SM BKN065 25/20 A3018 RMK AO2 SLP218 T02500200 Follow KHWO on AV Mobile HOLLYWOOD NORTH PERRY AIRPORT 954-983-5904
X51FAA ID X51, AWOS-3, KTEX 070640Z AUTO 15005KT 10SM CLR 02/M16 A3038 RMK AO2 T00201164 Follow  on AV Mobile HOMESTEAD 118.375 (305) 247-2791
KHSTFAA ID HST, KHST 070058Z AUTO 00000KT 10SM CLR 23/21 A3016 RMK AO2 SLP216 T02260211 Follow KHST on AV Mobile Homestead Air Force Base
KIMMFAA ID IMM, AWOS-3, KIMM 070115Z AUTO 00000KT 7SM OVC085 A3019 RMK A01 P000 Follow KIMM on AV Mobile IMMOKALEE 118.525 239-657-2038
KINFFAA ID INF, AWOS-3, KINF 070115Z AUTO 02009KT 7SM OVC005 11/10 A3033 RMK AO2 Follow KINF on AV Mobile INVERNESS 119.975 352-341-0264
KX84ICAO ID KX84 Islamorada Coast Guard Station
KHEGFAA ID HEG, AWOS-3 JACKSONVILLE 119.275 904-695-0334
KCRGFAA ID CRG, ASOS, KCRG 070053Z 02011KT 10SM OVC012 08/05 A3037 RMK AO2 SLP284 T00830050 Follow KCRG on AV Mobile JACKSONVILLE CRAIG MUN 904-646-4670
KJAXFAA ID JAX, ASOS, KJAX 070056Z 01007KT 10SM OVC011 07/07 A3038 Follow KJAX on AV Mobile JACKSONVILLE INTERNATIONAL 904-741-4304
KNIPFAA ID NIP, KNIP 070053Z 02014KT 10SM OVC010 09/06 A3038 RMK SLP282 T00940056 Follow KNIP on AV Mobile JACKSONVILLE NAVAL AIR STN
KVQQFAA ID VQQ, AWOS-3, KVQQ 070115Z AUTO 36006KT 10SM OVC008 07/06 A3038 RMK AO2 Follow KVQQ on AV Mobile Jacksonville, Cecil Field Airport 125.275 904-778-6934
KNENFAA ID NEN NOLF WHITEHOUSE FIELD, FL
KX80ICAO ID KX80 Jupiter Inlet Coast Guard Station
KEYWFAA ID EYW, ASOS, KEYW 070053Z 01007KT 10SM FEW016 23/22 A3017 Follow KEYW on AV Mobile KEY WEST INTERNATIONAL AIRPORT 119.65 305-292-4046
KNQXFAA ID NQX, KNQX 070053Z 36008KT 10SM FEW017 23/21 A3016 RMK AO2 SLP212 T02280211 $ Follow KNQX on AV Mobile KEY WEST NAVAL AIR STATION
K42JFAA ID 42J, AWOS-3, K42J 070115Z AUTO 04007KT 8SM BKN006 OVC011 07/07 A3036 RMK AO1 TSNO Follow K42J on AV Mobile KEYSTONE HEIGHTS 124.275 352-473-8273
KLCQFAA ID LCQ, AWOS-3, KLCQ 070115Z AUTO 03004KT 5SM BR OVC008 07/06 A3037 RMK AO2 Follow KLCQ on AV Mobile LAKE CITY 120.675 386-754-9366
X07FAA ID X07, AWOS-3, KTEX 070640Z AUTO 15005KT 10SM CLR 02/M16 A3038 RMK AO2 T00201164 Follow  on AV Mobile LAKE WALES 124.225 863-678-1334
KX81ICAO ID KX81 Lake Worth Inlet
KLALFAA ID LAL, AWOS-3PT, KLAL 070050Z 02012G15KT 7SM OVC011 15/13 A3026 Follow KLAL on AV Mobile Lakeland Regional 118.025 863-834-2030
KLEEFAA ID LEE, ASOS, KLEE 070053Z AUTO 01013KT 8SM OVC007 11/09 A3032 RMK AO2 SLP265 T01060094 Follow KLEE on AV Mobile LEESBURG REGIONAL AIRPORT 134.325 352-787-1565
24JFAA ID 24J, AWOS-3, KTEX 070640Z AUTO 15005KT 10SM CLR 02/M16 A3038 RMK AO2 T00201164 Follow  on AV Mobile LIVE OAK 118.225 386-362-1731
KX88ICAO ID KX88 Marathon Coast Guard Station
KMTHFAA ID MTH, ASOS, KMTH 070053Z AUTO 05004KT 10SM CLR 25/21 A3015 RMK AO2 SLP210 T02500211 Follow KMTH on AV Mobile MARATHON AIRPORT 135.525 305-743-8373
KMKYFAA ID MKY, AWOS-3, KMKY 070115Z AUTO 32006KT 10SM FEW060 22/19 A3017 RMK AO1 Follow KMKY on AV Mobile MARCO ISLAND 120.075 239-394-8187
KMAIFAA ID MAI, ASOS, KMAI 070053Z AUTO 01004KT 10SM CLR 07/05 A3039 RMK AO2 SLP291 T00720050 Follow KMAI on AV Mobile MARIANNA MUNICIPAL AIRPORT 133.525 850-482-6082
KHRTFAA ID HRT, KHRT 070058Z AUTO 01009KT 10SM CLR 09/M02 A3038 RMK AO2 SLP290 T00901023 $ Follow KHRT on AV Mobile Hurlburt Field
KNRBFAA ID NRB, KNRB 070052Z AUTO 01013G21KT 10SM OVC013 08/06 A3038 RMK AO2 SLP285 T00830056 $ Follow KNRB on AV Mobile MAYPORT NAVAL AIR FACILITY
KMLBFAA ID MLB, ASOS, KMLB 070053Z 35014G21KT 10SM OVC009 16/14 A3023 Follow KMLB on AV Mobile MELBOURNE INTERNATIONAL 321-723-7403
KCOIFAA ID COI, AWOS-3 Merritt Island, Merritt Island Airport 119.025 321-986-8864
KTNTFAA ID TNT, AWOS-3 MIAMI 119.075 (239) 695-9198
KX87ICAO ID KX87 Miami Beach Coast Guard Station
KAMXICAO ID KAMX Miami Nexrad
KTMBFAA ID TMB, ASOS, KTMB 070053Z 12003KT 10SM CLR 23/20 A3017 Follow KTMB on AV Mobile KENDALL-TAMIAMI EXEC AIRPORT 305-235-1332
KMIAFAA ID MIA, ASOS, KMIA 070053Z 12004KT 10SM SCT070 25/21 A3017 Follow KMIA on AV Mobile MIAMI INTERNATIONAL AIRPORT 305-870-0235
KOPFFAA ID OPF, KOPF 070053Z 11005KT 10SM BKN065 24/21 A3017 Follow KOPF on AV Mobile MIAMI OPA LOCKA AIRPORT
KNFJFAA ID NFJ CHOCTAW, WHITING FIELD, NOLF
KNSEFAA ID NSE, KNSE 070056Z 36006KT 10SM FEW120 BKN250 07/M01 A3041 RMK AO2 SLP288 T00721011 $ Follow KNSE on AV Mobile MILTON WHITING FIELD (NORTH)
KNDZFAA ID NDZ, KNDZ 070056Z 36009KT 10SM FEW130 BKN250 09/M01 A3041 RMK AO2 SLP289 T00891011 Follow KNDZ on AV Mobile MILTON WHITING FIELD (SOUTH)
KAPFFAA ID APF, ASOS, KAPF 070117Z 32009KT 8SM FEW007 22/21 A3019 Follow KAPF on AV Mobile NAPLES MUNICIPAL AIRPORT 239-643-9886
KRRFICAO ID KRRF New Port Richey, Tampa Bay Executive Airport
KEVBFAA ID EVB, AWOS-3, KEVB 070047Z 34020G30KT 2SM -RA BR OVC005 11/10 A3031 Follow KEVB on AV Mobile New Smyrna Beach, New Smyrna Beach Municipal Airport 124.625 386-409-4705
KOCFFAA ID OCF, AWOS-3, KOCF 070115Z AUTO 02008G14KT 7SM OVC006 09/07 A3033 RMK AO1 Follow KOCF on AV Mobile Ocala, Ocala International Airport-Jim Taylor Field 128.125 352-237-8525
KOBEFAA ID OBE, AWOS-3, KOBE 070115Z AUTO 04007KT 10SM BKN013 18/17 A3022 RMK AO2 Follow KOBE on AV Mobile Okeechobee County Airport 118.675 863-467-1148
KORLFAA ID ORL, ASOS, KORL 070053Z 02017G22KT 10SM OVC009 13/10 A3029 RMK AO2 CIG 008V013 SLP261 T01280100 Follow KORL on AV Mobile ORLANDO EXECUTIVE AIRPORT 407-658-6753
KMCOFAA ID MCO, ASOS, KMCO 070113Z 36013KT 10SM OVC009 13/12 A3029 Follow KMCO on AV Mobile ORLANDO INTERNATIONAL AIRPORT 407-855-5235
KSFBFAA ID SFB, ASOS, KSFB 070053Z 01017G22KT 9SM OVC008 11/09 A3030 Follow KSFB on AV Mobile ORLANDO SANFORD AIRPORT 407-321-9384
KISMFAA ID ISM, AWOS-3, KISM 070050Z 02010KT 10SM OVC010 15/13 A3028 Follow KISM on AV Mobile Orlando, Kissimmee Municipal Airport 128.775 407-847-0533
KOMNFAA ID OMN, AWOS-3, KOMN 062350Z 36012G16KT 2SM -RABR OVC008 10/09 A3030 RMK LAST Follow KOMN on AV Mobile Ormond Beach, Ormond Beach Municipal Airport 118.475 386-615-7084
28JFAA ID 28J, AWOS-3, KTEX 070640Z AUTO 15005KT 10SM CLR 02/M16 A3038 RMK AO2 T00201164 Follow  on AV Mobile PALATKA 119.92 386-312-2212
KXFLFAA ID XFL, AWOS-3, KXFL 132150Z VRB03KT 7SM CLR 21/18 A2999 Follow KXFL on AV Mobile PALM COAST 128.325 386-437-7334
KECPFAA ID ECP, ASOS, KECP 070053Z 02007KT 10SM CLR 08/04 A3038 Follow KECP on AV Mobile PANAMA CITY 119.975 850-235-7857
KPFNICAO ID KPFN, KPFN 030253Z VRB03KT 10SM FEW023 25/23 A2989 Follow KPFN on AV Mobile PANAMA CITY-BAY CTY INTERNATIONAL
KPAMFAA ID PAM, KPAM 070058Z AUTO 04007KT 10SM BKN220 08/04 A3037 RMK AO2 SLP287 T00760041 $ Follow KPAM on AV Mobile Tyndall Air Force Base
KPNSFAA ID PNS, ASOS, KPNS 070053Z 01009G16KT 10SM CLR 09/M02 A3040 Follow KPNS on AV Mobile PENSACOLA REGIONAL AIRPORT 850-436-4799
KNPAFAA ID NPA, KNPA 070056Z 01007KT 10SM BKN250 10/M02 A3040 RMK AO2 SLP296 T01001022 $ Follow KNPA on AV Mobile Pensacola, Naval Air Station
K40JFAA ID 40J, AWOS-3PT, K40J 070115Z AUTO 02008KT 10SM OVC012 09/07 A3037 RMK AO2 T00900072 Follow K40J on AV Mobile PERRY-FOLEY AIRPORT 118.375 850-838-3526
FA54FAA ID FA54, Belfort CORAL CREEK
KPCMFAA ID PCM, AWOS-3, KPCM 070115Z AUTO 02005G14KT 10SM OVC009 A3028 RMK AO2 Follow KPCM on AV Mobile Plant City, Plant City Municipal Airport 120.025 813-764-8259
KPMPFAA ID PMP, ASOS, KPMP 070053Z 03007KT 10SM FEW100 SCT110 24/21 A3017 RMK AO2 SLP217 T02440211 Follow KPMP on AV Mobile POMPANO BEACH AIRPARK 954-783-3720
K1J3ICAO ID K1J3 Ponce De Leon Inlet
KPGDFAA ID PGD, ASOS, KPGD 070127Z AUTO 01011KT 10SM FEW027 OVC100 22/18 A3022 RMK AO2 T02220178 Follow KPGD on AV Mobile PUNTA GORDA CHARLOTTE COUNTY 135.675 941-639-0076
K1J5ICAO ID K1J5 Santa Rosa Coast Guard Station
KSRQFAA ID SRQ, ASOS, KSRQ 070053Z AUTO 01007KT 10SM OVC013 19/16 A3021 Follow KSRQ on AV Mobile SARASOTA/BRADENTON INTERNATIONAL . 124.375 941-359-0117
KSEFFAA ID SEF, AWOS-3 SEBRING 119.475 863-655-6424
KSGJFAA ID SGJ, AWOS-3, KSGJ 070058Z 01016G23KT 7SM OVC010 08/07 A3037 RMK AO2 PK WND 01026/0045 SLP285 T00830067 Follow KSGJ on AV Mobile St. Augustine, St. Augustine Airport 904-824-7084
KPIEFAA ID PIE, ASOS, KPIE 070053Z 02010KT 10SM OVC007 15/14 A3026 Follow KPIE on AV Mobile ST PETERSBURG/CLEARWATER 727-531-3456
KSPGFAA ID SPG, ASOS, KSPG 070122Z 05014KT 10SM OVC009 17/14 A3025 RMK AO2 CIG 008V012 T01670144 Follow KSPG on AV Mobile ST PETERSBURG WHITTED AIRPORT 118.875 727-821-4334
KSUAFAA ID SUA, AWOS-3, KSUA 070115Z AUTO 01007KT 10SM OVC007 19/17 A3022 RMK AO2 Follow KSUA on AV Mobile Stuart, Witham Field Airport 772-692-7399
KTLHFAA ID TLH, ASOS, KTLH 070053Z 03008KT 10SM OVC016 09/05 A3037 Follow KTLH on AV Mobile TALLAHASSEE REGIONAL AIRPORT 850-576-3665
KTBWICAO ID KTBW Tampa Bay Area
KMCFFAA ID MCF, KMCF 070058Z AUTO 04008KT 10SM OVC012 16/15 A3025 RMK AO2 SLP247 T01570145 Follow KMCF on AV Mobile Macdill Air Force Base, Fl.
KTPAFAA ID TPA, ASOS, KTPA 070053Z 03008KT 10SM -DZ OVC008 15/12 A3026 Follow KTPA on AV Mobile TAMPA INTERNATIONAL AIRPORT 813-873-7228
KTPFFAA ID TPF, AWOS-3, KTPF 070115Z AUTO 04010G15KT 10SM OVC011 16/14 A3027 RMK AO2 Follow KTPF on AV Mobile Tampa, Peter O Knight Airport 118.925 813-251-6824
KVDFFAA ID VDF, AWOS-3, KVDF 070115Z AUTO 03007KT 10SM OVC009 16/13 A3028 RMK AO2 Follow KVDF on AV Mobile Tampa, Vandenberg Airport 121.125 813-630-0924
KVLGICAO ID KVLG The Villages
KVVGICAO ID KVVG, KVVG 070115Z AUTO 01011KT 6SM BR 10/09 A3023 RMK A01 Follow KVVG on AV Mobile The Villages
KX68ICAO ID KX68 Titusville, NASA Shuttle Landing Facility
KTIXFAA ID TIX, KTIX 070050Z 35020G25KT 7SM OVC008 13/12 A3027 Follow KTIX on AV Mobile Titusville
KX21FAA ID X21, AWOS-3 Titusville, Arthur Dunn Air Park 119.725 321-385-0383
KTTSFAA ID TTS, KTTS 070058Z AUTO 36019G26KT 10SM OVC007 14/12 A3026 RMK AO2 PK WND 34028/02 DZB00E10 SLP251 P0000 T01360118 $ Follow KTTS on AV Mobile Titusville, NASA Shuttle Landing Facility
KVPSFAA ID VPS, KVPS 070055Z 36005KT 10SM BKN200 09/01 A3038 RMK AO2A SLP295 T00910012 $ Follow KVPS on AV Mobile Valparaiso / Eglin Air Force Base
KVNCFAA ID VNC, AWOS-3, KVNC 070115Z AUTO 01010KT 10SM SCT070 22/18 A3022 RMK AO2 Follow KVNC on AV Mobile VENICE 119.275
KX90ICAO ID KX90 Venice Long Range Navigation
KVRBFAA ID VRB, ASOS, KVRB 070053Z 36009KT 10SM OVC007 18/16 A3022 Follow KVRB on AV Mobile VERO BEACH MUNICIPAL AIRPORT 772-978-9535
F45FAA ID F45, AWOS-3, KTEX 070640Z AUTO 15005KT 10SM CLR 02/M16 A3038 RMK AO2 T00201164 Follow  on AV Mobile WEST PALM BEACH 119.975 561-630-6932
KLNAFAA ID LNA, AWOS-3 WEST PALM BEACH 119.925 561-964-0308
KPBIFAA ID PBI, ASOS, KPBI 070127Z 01011KT 10SM BKN014 BKN110 23/21 A3019 Follow KPBI on AV Mobile PALM BEACH INTERNATIONAL 123.75 561-683-2548
FD38FAA ID FD38, Belfort WELLINGTON AERO CLUB
X60FAA ID X60, AWOS-3, KTEX 070640Z AUTO 15005KT 10SM CLR 02/M16 A3038 RMK AO2 T00201164 Follow  on AV Mobile WILLISTON 118.425 352-528-9949
KGIFFAA ID GIF, ASOS, KGIF 070053Z AUTO 02014G18KT 10SM OVC011 16/13 A3027 RMK AO2 SLP249 T01560128 Follow KGIF on AV Mobile WINTER HAVENS GILBERT AIRPORT 133.675 863-956-2097
KZPHFAA ID ZPH, ASOS, KZPH 070115Z AUTO 01008KT 10SM OVC009 13/12 A3029 RMK AO2 Follow KZPH on AV Mobile ZEPHYRHILLS 118.975 813-780-0031

Click on the AV Mobile icon AV Mobile icon by any station to follow that AWOS feed on AirportView.net Mobile.

Garmin aera 796 $1999 at Avionics Specialists LLC
Bose A20 Aviation Headsets $995 at Avionics Specialists LLC